Time;durP1;ratioP1;P1;durP2;ratioP2;P2;SDS_P1;SDS_P2;PMS_P1;PMS_P2;Temp;Humidity;BMP_temperature;BMP_pressure;BME280_temperature;BME280_humidity;BME280_pressure;Samples;Min_cycle;Max_cycle;Signal;HPM_P1;HPM_P2
2022/04/03 00:00:11;;;;;;;26.10;6.68;;;;;;;;;;5080015;28;20020;-42
2022/04/03 00:02:37;;;;;;;10.85;4.95;;;;;;;;;;5083046;28;20411;-42
2022/04/03 00:05:03;;;;;;;3.42;2.75;;;;;;;;;;5080281;28;20051;-44
2022/04/03 00:07:28;;;;;;;7.97;2.25;;;;;;;;;;5079061;28;20103;-43
2022/04/03 00:09:53;;;;;;;11.07;3.40;;;;;;;;;;5083724;28;20384;-45
2022/04/03 00:12:19;;;;;;;4.72;2.78;;;;;;;;;;5081889;28;20041;-48
2022/04/03 00:14:44;;;;;;;9.63;3.67;;;;;;;;;;5081826;28;20111;-47
2022/04/03 00:17:09;;;;;;;6.65;4.60;;;;;;;;;;5083114;28;20052;-43
2022/04/03 00:19:35;;;;;;;7.20;4.70;;;;;;;;;;5079335;28;20040;-42
2022/04/03 00:22:01;;;;;;;4.88;3.33;;;;;;;;;;5080991;28;20044;-46
2022/04/03 00:24:26;;;;;;;19.08;4.63;;;;;;;;;;5086199;28;20057;-42
2022/04/03 00:26:52;;;;;;;10.52;3.90;;;;;;;;;;5085017;28;20117;-43
2022/04/03 00:29:17;;;;;;;15.68;5.78;;;;;;;;;;5083256;28;20140;-44
2022/04/03 00:31:42;;;;;;;12.93;6.20;;;;;;;;;;5087114;28;20487;-44
2022/04/03 00:34:07;;;;;;;12.85;6.10;;;;;;;;;;5088391;28;20721;-42
2022/04/03 00:36:33;;;;;;;11.50;4.85;;;;;;;;;;5086044;28;20701;-49
2022/04/03 00:38:59;;;;;;;10.90;3.78;;;;;;;;;;5085925;28;20040;-46
2022/04/03 00:41:24;;;;;;;9.32;5.35;;;;;;;;;;5088111;28;20040;-41
2022/04/03 00:43:49;;;;;;;8.02;3.67;;;;;;;;;;5085229;28;20041;-48
2022/04/03 00:46:17;;;;;;;5.88;2.83;;;;;;;;;;5086906;28;20624;-46
2022/04/03 00:48:44;;;;;;;11.95;4.03;;;;;;;;;;5085199;28;20105;-43
2022/04/03 00:51:11;;;;;;;6.20;3.25;;;;;;;;;;5084669;28;20063;-42
2022/04/03 00:53:36;;;;;;;6.93;3.22;;;;;;;;;;5080902;28;20044;-44
2022/04/03 00:56:02;;;;;;;6.47;3.70;;;;;;;;;;5084204;28;20435;-44
2022/04/03 00:58:27;;;;;;;14.35;3.28;;;;;;;;;;5084894;28;20500;-43
2022/04/03 01:00:52;;;;;;;8.02;1.92;;;;;;;;;;5085901;28;20128;-43
2022/04/03 01:03:17;;;;;;;8.52;3.30;;;;;;;;;;5085820;28;20048;-45
2022/04/03 01:05:43;;;;;;;8.20;3.08;;;;;;;;;;5086148;28;20049;-43
2022/04/03 01:08:09;;;;;;;7.88;3.53;;;;;;;;;;5082991;28;20132;-42
2022/04/03 01:10:34;;;;;;;5.20;1.30;;;;;;;;;;5086575;28;20040;-42
2022/04/03 01:13:00;;;;;;;7.88;2.55;;;;;;;;;;5086330;28;20046;-42
2022/04/03 01:15:25;;;;;;;7.78;1.60;;;;;;;;;;5086068;28;20044;-40
2022/04/03 01:17:50;;;;;;;12.80;3.00;;;;;;;;;;5084746;28;20177;-40
2022/04/03 01:20:17;;;;;;;5.53;2.72;;;;;;;;;;5083818;28;20044;-45
2022/04/03 01:22:42;;;;;;;9.02;3.83;;;;;;;;;;5086586;28;20113;-45
2022/04/03 01:25:10;;;;;;;8.13;3.70;;;;;;;;;;5082934;28;20559;-42
2022/04/03 01:27:36;;;;;;;10.27;2.65;;;;;;;;;;5083017;28;20119;-43
2022/04/03 01:30:01;;;;;;;14.73;2.30;;;;;;;;;;5081716;28;20155;-42
2022/04/03 01:32:26;;;;;;;3.40;1.98;;;;;;;;;;5082399;28;20056;-42
2022/04/03 01:34:52;;;;;;;6.55;2.58;;;;;;;;;;5082751;28;20040;-43
2022/04/03 01:37:17;;;;;;;10.82;5.05;;;;;;;;;;5083231;28;20176;-41
2022/04/03 01:39:42;;;;;;;9.13;3.55;;;;;;;;;;5085217;28;20054;-41
2022/04/03 01:42:09;;;;;;;8.45;3.85;;;;;;;;;;5085498;28;20040;-41
2022/04/03 01:44:35;;;;;;;13.07;4.88;;;;;;;;;;5085116;28;20056;-41
2022/04/03 01:47:00;;;;;;;13.00;4.30;;;;;;;;;;5085652;28;20536;-41
2022/04/03 01:49:25;;;;;;;8.77;3.67;;;;;;;;;;5087459;28;20058;-41
2022/04/03 01:51:50;;;;;;;25.73;7.35;;;;;;;;;;5083165;28;20605;-42
2022/04/03 01:54:16;;;;;;;11.35;7.22;;;;;;;;;;5082221;28;20097;-44
2022/04/03 01:56:41;;;;;;;25.27;9.65;;;;;;;;;;5084939;28;20039;-46
2022/04/03 01:59:07;;;;;;;23.52;7.10;;;;;;;;;;5082111;28;20081;-41
2022/04/03 02:01:33;;;;;;;10.60;4.05;;;;;;;;;;5081128;28;20063;-42
2022/04/03 02:04:00;;;;;;;8.05;4.40;;;;;;;;;;5084364;28;20075;-40
2022/04/03 02:06:25;;;;;;;19.67;4.63;;;;;;;;;;5084025;28;20064;-44
2022/04/03 02:08:51;;;;;;;5.22;2.10;;;;;;;;;;5085506;28;20113;-43
2022/04/03 02:11:16;;;;;;;5.53;1.40;;;;;;;;;;5085415;28;20078;-43
2022/04/03 02:13:41;;;;;;;12.20;3.92;;;;;;;;;;5083860;28;20056;-40
2022/04/03 02:16:07;;;;;;;16.30;4.53;;;;;;;;;;5081707;28;20052;-42
2022/04/03 02:18:32;;;;;;;6.65;5.63;;;;;;;;;;5083100;28;20075;-41
2022/04/03 02:20:57;;;;;;;6.30;4.95;;;;;;;;;;5084143;28;20051;-42
2022/04/03 02:23:23;;;;;;;10.82;4.22;;;;;;;;;;5083283;28;20040;-41
2022/04/03 02:25:50;;;;;;;5.35;3.05;;;;;;;;;;5081044;28;20481;-43
2022/04/03 02:28:16;;;;;;;8.15;1.92;;;;;;;;;;5083518;28;20048;-45
2022/04/03 02:30:42;;;;;;;14.18;1.60;;;;;;;;;;5083839;28;20083;-46
2022/04/03 02:33:07;;;;;;;8.52;2.40;;;;;;;;;;5082585;28;20091;-42
2022/04/03 02:35:32;;;;;;;11.90;2.63;;;;;;;;;;5083334;28;20167;-42
2022/04/03 02:37:58;;;;;;;2.80;1.50;;;;;;;;;;5086024;28;20044;-44
2022/04/03 02:40:23;;;;;;;4.90;2.83;;;;;;;;;;5082766;28;20135;-40
2022/04/03 02:42:49;;;;;;;5.05;1.92;;;;;;;;;;5085785;28;20552;-45
2022/04/03 02:45:15;;;;;;;10.32;2.60;;;;;;;;;;5080991;28;20047;-40
2022/04/03 02:47:46;;;;;;;6.43;2.83;;;;;;;;;;5081407;28;20076;-41
2022/04/03 02:50:13;;;;;;;1.75;1.23;;;;;;;;;;5082799;28;20047;-42
2022/04/03 02:52:38;;;;;;;6.88;2.20;;;;;;;;;;5083514;28;20044;-40
2022/04/03 02:55:04;;;;;;;3.83;1.38;;;;;;;;;;5081792;28;20495;-41
2022/04/03 02:57:29;;;;;;;4.47;1.90;;;;;;;;;;5081428;28;20115;-42
2022/04/03 02:59:54;;;;;;;5.70;1.80;;;;;;;;;;5081930;28;20046;-41
2022/04/03 03:02:20;;;;;;;9.45;2.13;;;;;;;;;;5086244;28;20135;-40
2022/04/03 03:04:45;;;;;;;7.38;2.22;;;;;;;;;;5080983;28;20209;-42
2022/04/03 03:07:12;;;;;;;4.82;2.33;;;;;;;;;;5083457;28;20047;-44
2022/04/03 03:09:37;;;;;;;3.53;2.00;;;;;;;;;;5081967;28;20059;-42
2022/04/03 03:12:02;;;;;;;12.55;2.63;;;;;;;;;;5083231;28;20043;-40
2022/04/03 03:14:28;;;;;;;4.40;2.20;;;;;;;;;;5083461;28;20507;-40
2022/04/03 03:16:54;;;;;;;7.68;3.08;;;;;;;;;;5081089;28;20044;-43
2022/04/03 03:19:19;;;;;;;5.25;1.85;;;;;;;;;;5082271;28;20151;-47
2022/04/03 03:21:45;;;;;;;4.70;1.83;;;;;;;;;;5081480;28;20080;-42
2022/04/03 03:24:10;;;;;;;5.88;2.03;;;;;;;;;;5081709;28;20396;-40
2022/04/03 03:26:36;;;;;;;12.10;2.60;;;;;;;;;;5082561;28;20035;-43
2022/04/03 03:29:01;;;;;;;15.35;2.08;;;;;;;;;;5082985;28;20430;-45
2022/04/03 03:31:27;;;;;;;15.27;3.88;;;;;;;;;;5081785;28;20713;-43
2022/04/03 03:33:52;;;;;;;9.35;3.55;;;;;;;;;;5083027;28;20050;-42
2022/04/03 03:36:17;;;;;;;12.98;2.92;;;;;;;;;;5082956;28;20044;-44
2022/04/03 03:38:43;;;;;;;13.52;3.08;;;;;;;;;;5083053;28;20329;-41
2022/04/03 03:41:09;;;;;;;4.82;2.45;;;;;;;;;;5082978;28;20495;-44
2022/04/03 03:43:35;;;;;;;8.00;2.40;;;;;;;;;;5079346;28;20443;-41
2022/04/03 03:46:00;;;;;;;3.47;2.08;;;;;;;;;;5083111;28;20094;-45
2022/04/03 03:48:25;;;;;;;7.95;2.38;;;;;;;;;;5083824;28;20085;-42
2022/04/03 03:50:51;;;;;;;8.85;1.95;;;;;;;;;;5083518;28;20047;-42
2022/04/03 03:53:17;;;;;;;8.13;1.77;;;;;;;;;;5081967;28;20511;-41
2022/04/03 03:55:43;;;;;;;6.13;1.90;;;;;;;;;;5083283;28;20051;-41
2022/04/03 03:58:08;;;;;;;8.73;2.33;;;;;;;;;;5087801;28;20079;-43
2022/04/03 04:00:34;;;;;;;22.73;3.38;;;;;;;;;;5082867;28;20064;-43
2022/04/03 04:02:59;;;;;;;5.68;2.85;;;;;;;;;;5083859;28;20075;-41
2022/04/03 04:05:25;;;;;;;8.38;2.80;;;;;;;;;;5087672;28;20122;-40
2022/04/03 04:07:50;;;;;;;8.48;2.70;;;;;;;;;;5084387;28;20052;-44
2022/04/03 04:10:16;;;;;;;4.15;2.35;;;;;;;;;;5085154;28;20080;-41
2022/04/03 04:12:42;;;;;;;4.90;2.95;;;;;;;;;;5088436;28;20043;-43
2022/04/03 04:15:08;;;;;;;12.35;1.83;;;;;;;;;;5086050;28;20086;-46
2022/04/03 04:17:38;;;;;;;6.97;2.53;;;;;;;;;;5083416;28;20047;-43
2022/04/03 04:20:13;;;;;;;12.38;3.08;;;;;;;;;;5086760;28;20043;-45
2022/04/03 04:22:39;;;;;;;1.88;1.50;;;;;;;;;;5086531;28;20039;-46
2022/04/03 04:25:05;;;;;;;7.60;2.55;;;;;;;;;;5086136;28;20050;-40
2022/04/03 04:27:31;;;;;;;7.35;1.98;;;;;;;;;;5085836;28;20134;-43
2022/04/03 04:29:56;;;;;;;11.10;1.98;;;;;;;;;;5087303;28;20039;-40
2022/04/03 04:32:21;;;;;;;3.80;1.42;;;;;;;;;;5083211;28;20048;-45
2022/04/03 04:34:48;;;;;;;17.33;1.70;;;;;;;;;;5087596;28;20040;-45
2022/04/03 04:37:13;;;;;;;6.95;3.03;;;;;;;;;;5085510;28;20130;-46
2022/04/03 04:39:39;;;;;;;8.23;2.63;;;;;;;;;;5089224;28;20128;-45
2022/04/03 04:42:04;;;;;;;5.75;1.90;;;;;;;;;;5086265;28;20488;-40
2022/04/03 04:44:29;;;;;;;15.52;4.05;;;;;;;;;;5086376;28;20147;-40
2022/04/03 04:46:55;;;;;;;4.32;2.15;;;;;;;;;;5088883;28;20044;-41
2022/04/03 04:49:20;;;;;;;11.63;2.35;;;;;;;;;;5088020;28;20044;-43
2022/04/03 04:51:45;;;;;;;9.32;2.42;;;;;;;;;;5084517;28;20674;-40
2022/04/03 04:54:10;;;;;;;10.82;1.67;;;;;;;;;;5087511;28;20060;-46
2022/04/03 04:56:36;;;;;;;11.93;2.45;;;;;;;;;;5083993;28;20165;-44
2022/04/03 04:59:02;;;;;;;7.72;1.58;;;;;;;;;;5079728;28;20164;-40
2022/04/03 05:01:27;;;;;;;12.70;2.47;;;;;;;;;;5084424;28;20047;-44
2022/04/03 05:03:52;;;;;;;6.53;1.95;;;;;;;;;;5084209;28;20033;-44
2022/04/03 05:06:18;;;;;;;12.02;2.10;;;;;;;;;;5085053;28;20507;-43
2022/04/03 05:08:44;;;;;;;6.57;2.15;;;;;;;;;;5081309;28;20135;-42
2022/04/03 05:11:11;;;;;;;14.02;2.92;;;;;;;;;;5084434;28;20550;-41
2022/04/03 05:13:37;;;;;;;7.28;2.40;;;;;;;;;;5085257;28;20142;-46
2022/04/03 05:16:02;;;;;;;12.13;2.45;;;;;;;;;;5082978;28;20156;-41
2022/04/03 05:18:28;;;;;;;12.73;2.92;;;;;;;;;;5082943;28;20504;-45
2022/04/03 05:20:53;;;;;;;3.40;1.48;;;;;;;;;;5086619;28;20118;-46
2022/04/03 05:23:19;;;;;;;5.50;1.90;;;;;;;;;;5088733;28;20044;-42
2022/04/03 05:25:44;;;;;;;5.47;1.92;;;;;;;;;;5083813;28;20198;-45
2022/04/03 05:28:10;;;;;;;8.60;2.83;;;;;;;;;;5080600;28;20051;-42
2022/04/03 05:30:35;;;;;;;11.82;3.20;;;;;;;;;;5084520;28;20119;-43
2022/04/03 05:33:00;;;;;;;10.05;3.17;;;;;;;;;;5086172;28;20256;-43
2022/04/03 05:35:25;;;;;;;3.70;1.77;;;;;;;;;;5079481;28;20080;-44
2022/04/03 05:37:51;;;;;;;7.40;2.22;;;;;;;;;;5085256;28;20182;-47
2022/04/03 05:40:16;;;;;;;5.93;1.45;;;;;;;;;;5085242;28;20495;-42
2022/04/03 05:42:41;;;;;;;13.18;3.45;;;;;;;;;;5087359;28;20032;-41
2022/04/03 05:45:08;;;;;;;10.70;2.03;;;;;;;;;;5084743;28;20532;-41
2022/04/03 05:47:33;;;;;;;12.63;2.58;;;;;;;;;;5085666;28;20129;-40
2022/04/03 05:49:58;;;;;;;8.43;2.67;;;;;;;;;;5084625;28;20670;-42
2022/04/03 05:52:24;;;;;;;3.95;1.80;;;;;;;;;;5084503;28;20134;-47
2022/04/03 05:54:50;;;;;;;6.90;1.88;;;;;;;;;;5085437;28;20062;-41
2022/04/03 05:57:15;;;;;;;3.53;2.33;;;;;;;;;;5086808;28;20414;-42
2022/04/03 05:59:41;;;;;;;8.00;1.27;;;;;;;;;;5085323;28;20040;-45
2022/04/03 06:02:07;;;;;;;10.32;1.65;;;;;;;;;;5084788;28;20515;-46
2022/04/03 06:04:33;;;;;;;4.80;1.65;;;;;;;;;;5082605;28;20481;-49
2022/04/03 06:06:58;;;;;;;13.02;3.20;;;;;;;;;;5085479;28;20067;-44
2022/04/03 06:09:23;;;;;;;11.20;2.35;;;;;;;;;;5081783;28;20075;-41
2022/04/03 06:11:49;;;;;;;7.05;2.63;;;;;;;;;;5086087;28;20039;-45
2022/04/03 06:14:14;;;;;;;10.63;2.85;;;;;;;;;;5086233;28;20431;-40
2022/04/03 06:16:39;;;;;;;20.77;3.03;;;;;;;;;;5085916;28;20565;-44
2022/04/03 06:19:04;;;;;;;9.00;3.58;;;;;;;;;;5081559;28;20082;-42
2022/04/03 06:21:33;;;;;;;7.45;3.03;;;;;;;;;;5084068;28;20047;-40
2022/04/03 06:23:58;;;;;;;14.75;2.60;;;;;;;;;;5082422;28;20048;-42
2022/04/03 06:26:27;;;;;;;10.88;2.47;;;;;;;;;;5085877;28;20055;-43
2022/04/03 06:28:55;;;;;;;3.95;2.17;;;;;;;;;;5082643;28;20036;-45
2022/04/03 06:31:21;;;;;;;10.20;3.25;;;;;;;;;;5082767;28;20105;-42
2022/04/03 06:33:46;;;;;;;8.63;2.47;;;;;;;;;;5085072;28;20372;-41
2022/04/03 06:36:11;;;;;;;19.60;2.25;;;;;;;;;;5085563;28;20075;-43
2022/04/03 06:38:37;;;;;;;12.27;3.30;;;;;;;;;;5083497;28;20363;-45
2022/04/03 06:41:02;;;;;;;3.53;2.50;;;;;;;;;;5083342;28;20048;-41
2022/04/03 06:43:29;;;;;;;5.00;3.13;;;;;;;;;;5082228;28;20076;-41
2022/04/03 06:45:55;;;;;;;11.52;3.13;;;;;;;;;;5086205;28;20039;-43
2022/04/03 06:48:21;;;;;;;6.53;2.28;;;;;;;;;;5080485;28;20060;-43
2022/04/03 06:50:47;;;;;;;8.07;2.47;;;;;;;;;;5085127;28;20139;-44
2022/04/03 06:53:12;;;;;;;10.77;1.75;;;;;;;;;;5081781;28;20617;-47
2022/04/03 06:55:38;;;;;;;6.82;2.50;;;;;;;;;;5075961;28;20409;-46
2022/04/03 06:58:03;;;;;;;12.13;3.58;;;;;;;;;;5079513;28;20044;-41
2022/04/03 07:00:29;;;;;;;13.50;2.90;;;;;;;;;;5078482;28;20511;-43
2022/04/03 07:02:54;;;;;;;17.65;3.95;;;;;;;;;;5079576;28;20044;-42
2022/04/03 07:05:20;;;;;;;6.50;2.80;;;;;;;;;;5075493;28;20714;-43
2022/04/03 07:07:45;;;;;;;3.83;1.75;;;;;;;;;;5078917;28;20345;-44
2022/04/03 07:10:10;;;;;;;12.00;3.28;;;;;;;;;;5078548;28;20049;-45
2022/04/03 07:12:36;;;;;;;7.68;2.38;;;;;;;;;;5082278;28;20104;-43
2022/04/03 07:15:03;;;;;;;10.23;3.17;;;;;;;;;;5081406;28;20097;-42
2022/04/03 07:17:28;;;;;;;9.43;3.85;;;;;;;;;;5077195;28;20051;-46
2022/04/03 07:19:53;;;;;;;18.02;3.67;;;;;;;;;;5079626;28;20040;-46
2022/04/03 07:22:18;;;;;;;21.50;4.82;;;;;;;;;;5081214;28;20110;-47
2022/04/03 07:24:44;;;;;;;6.13;2.30;;;;;;;;;;5079314;28;20467;-48
2022/04/03 07:27:09;;;;;;;23.42;11.18;;;;;;;;;;5077137;28;20052;-41
2022/04/03 07:29:35;;;;;;;12.27;3.38;;;;;;;;;;5081472;28;20076;-43
2022/04/03 07:32:00;;;;;;;5.30;2.92;;;;;;;;;;5079868;28;20055;-43
2022/04/03 07:34:25;;;;;;;7.80;2.33;;;;;;;;;;5079653;28;20067;-42
2022/04/03 07:36:51;;;;;;;6.30;2.33;;;;;;;;;;5078343;28;20052;-42
2022/04/03 07:39:16;;;;;;;4.53;1.42;;;;;;;;;;5080082;28;20097;-41
2022/04/03 07:41:42;;;;;;;5.63;2.10;;;;;;;;;;5080456;28;20151;-41
2022/04/03 07:44:11;;;;;;;18.65;2.78;;;;;;;;;;5078627;28;20128;-45
2022/04/03 07:46:36;;;;;;;10.35;2.35;;;;;;;;;;5079771;28;20056;-43
2022/04/03 07:49:02;;;;;;;10.27;2.42;;;;;;;;;;5077842;28;20076;-43
2022/04/03 07:51:28;;;;;;;8.00;2.47;;;;;;;;;;5081365;28;20052;-43
2022/04/03 07:53:54;;;;;;;8.32;2.08;;;;;;;;;;5081253;28;20067;-50
2022/04/03 07:56:19;;;;;;;10.35;2.60;;;;;;;;;;5078307;28;20044;-44
2022/04/03 07:58:44;;;;;;;7.75;2.30;;;;;;;;;;5075717;28;20156;-47
2022/04/03 08:01:09;;;;;;;5.10;2.40;;;;;;;;;;5077582;28;20507;-45
2022/04/03 08:03:35;;;;;;;9.07;2.33;;;;;;;;;;5077099;28;20620;-43
2022/04/03 08:06:00;;;;;;;25.08;4.32;;;;;;;;;;5078798;28;20056;-48
2022/04/03 08:08:26;;;;;;;9.68;2.20;;;;;;;;;;5075933;28;20055;-46
2022/04/03 08:10:51;;;;;;;5.97;1.85;;;;;;;;;;5078889;28;20059;-48
2022/04/03 08:13:16;;;;;;;6.68;3.30;;;;;;;;;;5079571;28;20044;-48
2022/04/03 08:15:42;;;;;;;12.85;5.45;;;;;;;;;;5077857;28;20201;-47
2022/04/03 08:18:07;;;;;;;5.90;3.95;;;;;;;;;;5080923;28;20119;-45
2022/04/03 08:20:33;;;;;;;10.40;2.00;;;;;;;;;;5077802;28;20395;-45
2022/04/03 08:23:01;;;;;;;16.42;2.15;;;;;;;;;;5078119;28;20055;-43
2022/04/03 08:25:27;;;;;;;10.82;2.50;;;;;;;;;;5078843;28;20044;-44
2022/04/03 08:27:54;;;;;;;6.25;2.05;;;;;;;;;;5075793;28;20126;-45
2022/04/03 08:30:22;;;;;;;7.85;4.53;;;;;;;;;;5082529;28;20139;-46
2022/04/03 08:32:48;;;;;;;7.32;2.38;;;;;;;;;;5079257;28;20052;-45
2022/04/03 08:35:14;;;;;;;17.25;2.80;;;;;;;;;;5081426;28;20058;-46
2022/04/03 08:37:40;;;;;;;14.10;2.20;;;;;;;;;;5080503;28;20078;-48
2022/04/03 08:40:06;;;;;;;11.35;4.28;;;;;;;;;;5081338;28;20087;-50
2022/04/03 08:42:31;;;;;;;10.05;1.77;;;;;;;;;;5080881;28;20041;-46
2022/04/03 08:44:57;;;;;;;16.85;3.72;;;;;;;;;;5083471;28;20044;-43
2022/04/03 08:47:24;;;;;;;15.55;2.60;;;;;;;;;;5082404;28;20052;-42
2022/04/03 08:49:50;;;;;;;7.07;2.30;;;;;;;;;;5084730;28;20407;-47
2022/04/03 08:52:15;;;;;;;4.82;1.73;;;;;;;;;;5079795;28;20047;-47
2022/04/03 08:54:41;;;;;;;2.90;1.42;;;;;;;;;;5082079;28;20055;-49
2022/04/03 08:57:07;;;;;;;2.88;1.27;;;;;;;;;;5084736;28;20048;-45
2022/04/03 08:59:32;;;;;;;5.28;2.65;;;;;;;;;;5080048;28;20048;-43
2022/04/03 09:01:58;;;;;;;4.90;1.85;;;;;;;;;;5082265;28;20066;-45
2022/04/03 09:04:23;;;;;;;10.35;2.65;;;;;;;;;;5080714;28;20119;-44
2022/04/03 09:06:56;;;;;;;7.00;5.00;;;;;;;;;;5082609;28;20050;-47
2022/04/03 09:09:22;;;;;;;8.77;2.45;;;;;;;;;;5082113;28;20118;-45
2022/04/03 09:12:05;;;;;;;9.45;3.97;;;;;;;;;;5080840;28;20079;-45
2022/04/03 09:14:30;;;;;;;4.43;1.98;;;;;;;;;;5082743;28;20116;-45
2022/04/03 09:16:55;;;;;;;2.88;0.95;;;;;;;;;;5084337;28;20094;-50
2022/04/03 09:19:30;;;;;;;5.22;2.22;;;;;;;;;;5081329;28;20113;-48
2022/04/03 09:21:55;;;;;;;7.88;2.83;;;;;;;;;;5085773;28;20047;-48
2022/04/03 09:24:21;;;;;;;4.22;1.77;;;;;;;;;;5085817;28;20036;-47
2022/04/03 09:26:56;;;;;;;2.00;1.63;;;;;;;;;;5084626;28;20511;-47
2022/04/03 09:29:22;;;;;;;12.35;3.92;;;;;;;;;;5081613;28;20040;-50
2022/04/03 09:31:47;;;;;;;12.50;3.92;;;;;;;;;;5082374;28;20070;-52
2022/04/03 09:34:17;;;;;;;6.47;2.53;;;;;;;;;;5083359;28;20573;-48
2022/04/03 09:36:42;;;;;;;6.05;3.67;;;;;;;;;;5083709;28;20086;-48
2022/04/03 09:39:16;;;;;;;11.15;2.95;;;;;;;;;;5081182;28;20076;-52
2022/04/03 09:42:02;;;;;;;9.77;3.05;;;;;;;;;;5078983;28;20064;-48
2022/04/03 09:44:37;;;;;;;9.48;2.28;;;;;;;;;;5082670;28;20122;-48
2022/04/03 09:47:22;;;;;;;6.50;2.03;;;;;;;;;;5084081;28;20048;-53
2022/04/03 09:49:55;;;;;;;15.63;4.28;;;;;;;;;;5082681;28;20043;-46
2022/04/03 09:52:33;;;;;;;6.20;1.27;;;;;;;;;;5082490;28;20703;-49
2022/04/03 09:54:59;;;;;;;6.97;2.35;;;;;;;;;;5079995;28;20056;-48
2022/04/03 09:57:24;;;;;;;12.70;3.75;;;;;;;;;;5078480;28;20065;-44
2022/04/03 09:59:53;;;;;;;3.25;1.50;;;;;;;;;;5083448;28;20175;-46
2022/04/03 10:02:20;;;;;;;5.40;2.53;;;;;;;;;;5082330;28;20040;-45
2022/04/03 10:04:46;;;;;;;19.75;3.33;;;;;;;;;;5082161;28;20590;-45
2022/04/03 10:07:15;;;;;;;3.22;1.55;;;;;;;;;;5082088;28;20049;-46
2022/04/03 10:09:43;;;;;;;10.07;3.45;;;;;;;;;;5082859;28;20055;-47
2022/04/03 10:12:09;;;;;;;11.75;3.65;;;;;;;;;;5079139;28;20044;-47
2022/04/03 10:14:34;;;;;;;4.95;1.95;;;;;;;;;;5083762;28;20051;-43
2022/04/03 10:17:00;;;;;;;7.60;3.45;;;;;;;;;;5082447;28;20040;-47
2022/04/03 10:19:25;;;;;;;4.50;1.92;;;;;;;;;;5078003;28;20066;-50
2022/04/03 10:21:54;;;;;;;4.22;1.83;;;;;;;;;;5082727;28;20139;-50
2022/04/03 10:24:21;;;;;;;6.35;2.78;;;;;;;;;;5082727;28;20040;-48
2022/04/03 10:27:01;;;;;;;6.90;2.47;;;;;;;;;;5080455;28;20048;-46
2022/04/03 10:29:30;;;;;;;9.70;3.10;;;;;;;;;;5080260;28;20050;-45
2022/04/03 10:31:59;;;;;;;8.80;2.92;;;;;;;;;;5077865;28;20276;-44
2022/04/03 10:34:28;;;;;;;4.38;2.88;;;;;;;;;;5080006;28;20149;-47
2022/04/03 10:36:53;;;;;;;13.30;2.97;;;;;;;;;;5077882;28;20044;-48
2022/04/03 10:39:24;;;;;;;11.32;2.92;;;;;;;;;;5081056;28;20143;-47
2022/04/03 10:41:49;;;;;;;12.93;2.30;;;;;;;;;;5078023;28;20045;-46
2022/04/03 10:44:18;;;;;;;2.72;2.20;;;;;;;;;;5079658;28;20047;-45
2022/04/03 10:47:01;;;;;;;5.70;2.45;;;;;;;;;;5080824;28;20533;-49
2022/04/03 10:49:30;;;;;;;7.53;4.00;;;;;;;;;;5081526;28;20047;-45
2022/04/03 10:51:57;;;;;;;5.65;3.10;;;;;;;;;;5080716;28;20134;-46
2022/04/03 10:54:30;;;;;;;6.18;2.45;;;;;;;;;;5079842;28;20109;-48
2022/04/03 10:57:15;;;;;;;40.97;29.00;;;;;;;;;;5080599;28;20456;-47
2022/04/03 10:59:40;;;;;;;14.70;2.55;;;;;;;;;;5082720;28;20096;-47
2022/04/03 11:02:15;;;;;;;9.65;2.75;;;;;;;;;;5077195;28;20433;-49
2022/04/03 11:04:40;;;;;;;5.47;1.65;;;;;;;;;;5080248;28;20044;-46
2022/04/03 11:07:12;;;;;;;4.07;1.77;;;;;;;;;;5079996;28;20059;-48
2022/04/03 11:09:41;;;;;;;8.00;2.30;;;;;;;;;;5073616;28;20050;-45
2022/04/03 11:12:06;;;;;;;9.90;2.55;;;;;;;;;;5081507;28;20059;-44
2022/04/03 11:14:49;;;;;;;6.10;4.95;;;;;;;;;;5083493;28;20078;-46
2022/04/03 11:17:15;;;;;;;24.65;5.28;;;;;;;;;;5081455;28;20139;-49
2022/04/03 11:19:41;;;;;;;5.82;2.53;;;;;;;;;;5080676;28;20048;-47
2022/04/03 11:22:08;;;;;;;15.57;6.38;;;;;;;;;;5078811;28;20139;-50
2022/04/03 11:24:35;;;;;;;10.30;9.15;;;;;;;;;;5076896;28;20133;-48
2022/04/03 11:27:01;;;;;;;12.23;8.77;;;;;;;;;;5077418;28;20092;-44
2022/04/03 11:29:26;;;;;;;14.00;7.15;;;;;;;;;;5079295;28;20051;-47
2022/04/03 11:31:52;;;;;;;4.93;2.88;;;;;;;;;;5082278;28;20040;-47
2022/04/03 11:34:17;;;;;;;6.45;2.75;;;;;;;;;;5079420;28;20080;-46
2022/04/03 11:36:43;;;;;;;8.63;2.72;;;;;;;;;;5076756;28;20147;-48
2022/04/03 11:39:09;;;;;;;10.48;3.38;;;;;;;;;;5080192;28;20105;-48
2022/04/03 11:41:35;;;;;;;8.52;5.82;;;;;;;;;;5083130;28;20071;-46
2022/04/03 11:44:08;;;;;;;6.90;4.72;;;;;;;;;;5081000;28;20040;-45
2022/04/03 11:46:43;;;;;;;5.25;2.50;;;;;;;;;;5079396;28;20059;-49
2022/04/03 11:49:12;;;;;;;21.65;4.45;;;;;;;;;;5079618;28;20055;-48
2022/04/03 11:51:37;;;;;;;8.82;4.90;;;;;;;;;;5080806;28;20083;-46
2022/04/03 11:54:03;;;;;;;8.82;4.35;;;;;;;;;;5082148;28;20048;-48
2022/04/03 11:56:31;;;;;;;11.93;6.45;;;;;;;;;;5073760;28;20057;-47
2022/04/03 11:58:57;;;;;;;7.13;2.03;;;;;;;;;;5081986;28;20040;-48
2022/04/03 12:01:26;;;;;;;5.30;2.90;;;;;;;;;;5079601;28;20055;-48
2022/04/03 12:04:01;;;;;;;4.50;2.72;;;;;;;;;;5078830;28;20126;-51
2022/04/03 12:06:29;;;;;;;3.67;2.05;;;;;;;;;;5080523;28;20055;-47
2022/04/03 12:08:54;;;;;;;4.97;2.38;;;;;;;;;;5076572;28;20075;-48
2022/04/03 12:11:23;;;;;;;6.85;2.03;;;;;;;;;;5081057;28;20067;-48
2022/04/03 12:13:48;;;;;;;7.82;1.70;;;;;;;;;;5076528;28;20140;-48
2022/04/03 12:16:19;;;;;;;4.72;2.63;;;;;;;;;;5078981;28;20048;-46
2022/04/03 12:18:47;;;;;;;3.28;1.40;;;;;;;;;;5083929;28;20070;-47
2022/04/03 12:21:13;;;;;;;4.45;2.15;;;;;;;;;;5086289;28;20044;-45
2022/04/03 12:23:59;;;;;;;4.80;1.35;;;;;;;;;;5081979;28;20040;-47
2022/04/03 12:26:24;;;;;;;3.58;1.60;;;;;;;;;;5080348;28;20091;-46
2022/04/03 12:28:50;;;;;;;2.17;1.23;;;;;;;;;;5082221;28;20515;-49
2022/04/03 12:31:15;;;;;;;11.02;6.53;;;;;;;;;;5080901;28;20040;-43
2022/04/03 12:33:40;;;;;;;5.60;1.95;;;;;;;;;;5078556;28;20062;-47
2022/04/03 12:36:07;;;;;;;3.20;1.60;;;;;;;;;;5079687;28;20507;-45
2022/04/03 12:38:32;;;;;;;5.97;1.27;;;;;;;;;;5081165;28;20062;-52
2022/04/03 12:40:58;;;;;;;0.50;0.45;;;;;;;;;;5084887;28;20499;-48
2022/04/03 12:43:24;;;;;;;0.38;0.38;;;;;;;;;;5086232;28;20047;-47
2022/04/03 12:45:56;;;;;;;3.30;1.20;;;;;;;;;;5082604;28;20046;-49
2022/04/03 12:48:21;;;;;;;1.55;0.70;;;;;;;;;;5081884;28;20043;-46
2022/04/03 12:50:47;;;;;;;0.90;0.30;;;;;;;;;;5082775;28;20480;-52
2022/04/03 12:53:14;;;;;;;1.92;1.00;;;;;;;;;;5083146;28;20055;-50
2022/04/03 12:55:49;;;;;;;0.98;0.45;;;;;;;;;;5083612;28;20092;-50
2022/04/03 12:58:25;;;;;;;1.30;0.80;;;;;;;;;;5082982;28;20072;-50
2022/04/03 13:00:53;;;;;;;2.10;0.93;;;;;;;;;;5082659;28;20075;-50
2022/04/03 13:03:26;;;;;;;2.42;1.48;;;;;;;;;;5084624;28;20146;-51
2022/04/03 13:05:55;;;;;;;3.97;1.98;;;;;;;;;;5081246;28;20079;-50
2022/04/03 13:08:20;;;;;;;21.30;18.88;;;;;;;;;;5081049;28;20077;-49
2022/04/03 13:10:54;;;;;;;7.90;7.18;;;;;;;;;;5083745;28;20047;-49
2022/04/03 13:13:24;;;;;;;5.82;3.05;;;;;;;;;;5079360;28;20123;-49
2022/04/03 13:15:50;;;;;;;2.22;1.40;;;;;;;;;;5084715;28;20139;-47
2022/04/03 13:18:15;;;;;;;1.95;1.67;;;;;;;;;;5081301;28;20765;-51
2022/04/03 13:20:46;;;;;;;7.90;7.07;;;;;;;;;;5082142;28;20127;-46
2022/04/03 13:23:11;;;;;;;20.40;5.90;;;;;;;;;;5083759;28;20040;-49
2022/04/03 13:25:37;;;;;;;18.60;9.63;;;;;;;;;;5079716;28;20558;-47
2022/04/03 13:28:02;;;;;;;5.75;5.18;;;;;;;;;;5080240;28;20053;-50
2022/04/03 13:30:31;;;;;;;3.47;2.40;;;;;;;;;;5083664;28;20212;-51
2022/04/03 13:32:57;;;;;;;1.15;0.75;;;;;;;;;;5078515;28;20048;-50
2022/04/03 13:35:23;;;;;;;2.80;2.08;;;;;;;;;;5078274;28;20048;-46
2022/04/03 13:37:48;;;;;;;2.88;2.10;;;;;;;;;;5082004;28;20048;-49
2022/04/03 13:40:14;;;;;;;0.50;0.50;;;;;;;;;;5082861;28;20032;-48
2022/04/03 13:42:40;;;;;;;5.07;3.70;;;;;;;;;;5080769;28;20298;-47
2022/04/03 13:45:05;;;;;;;3.17;2.63;;;;;;;;;;5082327;28;20102;-48
2022/04/03 13:47:31;;;;;;;21.17;5.22;;;;;;;;;;5079808;28;20138;-50
2022/04/03 13:49:56;;;;;;;10.88;3.78;;;;;;;;;;5082261;28;20040;-49
2022/04/03 13:52:24;;;;;;;8.07;2.33;;;;;;;;;;5073912;28;20078;-47
2022/04/03 13:54:49;;;;;;;3.53;2.13;;;;;;;;;;5073855;28;20039;-49
2022/04/03 13:57:14;;;;;;;5.53;4.03;;;;;;;;;;5083234;28;20051;-48
2022/04/03 13:59:40;;;;;;;6.82;3.45;;;;;;;;;;5077920;28;20040;-51
2022/04/03 14:02:05;;;;;;;6.90;4.10;;;;;;;;;;5078399;28;20745;-48
2022/04/03 14:04:30;;;;;;;3.22;2.85;;;;;;;;;;5078813;28;20041;-48
2022/04/03 14:06:56;;;;;;;8.30;3.58;;;;;;;;;;5080127;28;20180;-47
2022/04/03 14:09:21;;;;;;;5.07;2.28;;;;;;;;;;5078667;28;20149;-49
2022/04/03 14:11:46;;;;;;;7.18;3.47;;;;;;;;;;5079199;28;20074;-47
2022/04/03 14:14:12;;;;;;;4.68;1.60;;;;;;;;;;5074661;28;20172;-46
2022/04/03 14:16:38;;;;;;;9.43;2.67;;;;;;;;;;5081081;28;20508;-52
2022/04/03 14:19:03;;;;;;;9.30;2.05;;;;;;;;;;5082252;28;20063;-49
2022/04/03 14:21:29;;;;;;;8.48;3.03;;;;;;;;;;5081491;28;20036;-49
2022/04/03 14:23:55;;;;;;;12.30;3.92;;;;;;;;;;5072607;28;20045;-49
2022/04/03 14:26:20;;;;;;;3.10;2.65;;;;;;;;;;5079010;28;20047;-50
2022/04/03 14:28:46;;;;;;;5.22;2.80;;;;;;;;;;5078922;28;20081;-50
2022/04/03 14:31:11;;;;;;;11.88;2.22;;;;;;;;;;5080817;28;20086;-50
2022/04/03 14:33:37;;;;;;;3.65;1.20;;;;;;;;;;5079955;28;20132;-52